Terminal Aerodrome Forecast
Issued by NWS

Home | Current Version | Previous Version | Text Only | Print | Product List | Glossary On
Versions: 1 2 3 4 5 6 7 8 9 10 11 12 13 14 15 16 17
196
FTUS44 KLZK 280520
TAFPBF
TAF
KPBF 280520Z 2806/2906 17006KT P6SM BKN025
      TEMPO 2810/2814 4SM BR BKN015
     FM281500 18006KT P6SM BKN040
     FM282000 20011KT P6SM VCSH BKN050
     FM290100 17005KT P6SM SCT250=

USA.gov is the U.S. government's official web portal to all federal, state and local government web resources and services.